Time;durP1;ratioP1;P1;durP2;ratioP2;P2;SDS_P1;SDS_P2;PMS_P1;PMS_P2;Temp;Humidity;BMP_temperature;BMP_pressure;BME280_temperature;BME280_humidity;BME280_pressure;Samples;Min_cycle;Max_cycle;Signal;HPM_P1;HPM_P2
2023/04/27 00:00:02;;;;;;;14.98;6.80;;;;;;;7.85;65.22;92996.81;514443;28;822;-59
2023/04/27 00:00:18;;;;;;;12.95;6.65;;;;;;;7.89;65.21;93004.69;515872;28;882;-59
2023/04/27 00:00:35;;;;;;;9.48;6.72;;;;;;;7.89;65.25;92999.94;515995;28;829;-59
2023/04/27 00:00:50;;;;;;;11.23;6.78;;;;;;;7.95;65.24;92999.78;515960;28;902;-59
2023/04/27 00:01:10;;;;;;;12.20;6.57;;;;;;;7.94;65.46;92992.81;515949;28;770;-59
2023/04/27 00:01:26;;;;;;;13.23;6.47;;;;;;;7.91;65.37;92999.38;515959;28;992;-59
2023/04/27 00:01:41;;;;;;;13.57;6.80;;;;;;;7.90;65.76;92997.94;516094;28;923;-59
2023/04/27 00:01:57;;;;;;;10.23;6.53;;;;;;;7.91;65.56;93004.88;516085;28;778;-59
2023/04/27 00:02:12;;;;;;;9.18;6.60;;;;;;;7.86;65.47;92998.25;515991;28;787;-58
2023/04/27 00:02:27;;;;;;;9.77;6.90;;;;;;;7.86;65.42;93001.00;516163;28;832;-59
2023/04/27 00:02:43;;;;;;;11.60;6.97;;;;;;;7.82;65.35;92999.91;516148;28;773;-59
2023/04/27 00:02:58;;;;;;;10.57;6.65;;;;;;;7.81;65.60;93001.16;516140;28;809;-59
2023/04/27 00:03:14;;;;;;;8.20;5.80;;;;;;;7.81;65.85;93001.16;516100;28;778;-59
2023/04/27 00:03:30;;;;;;;8.38;5.63;;;;;;;7.81;65.45;93001.91;516132;28;830;-59
2023/04/27 00:03:46;;;;;;;12.90;5.88;;;;;;;7.78;65.75;92997.50;516071;28;797;-59
2023/04/27 00:04:05;;;;;;;12.17;5.53;;;;;;;7.81;65.67;92998.44;516147;28;840;-59
2023/04/27 00:04:20;;;;;;;9.85;5.65;;;;;;;7.82;65.86;93002.66;516061;28;874;-59
2023/04/27 00:04:36;;;;;;;10.87;6.17;;;;;;;7.82;66.08;92997.16;516133;28;806;-59
2023/04/27 00:04:51;;;;;;;9.68;5.90;;;;;;;7.83;65.84;92993.84;516152;28;829;-59
2023/04/27 00:05:07;;;;;;;9.80;5.80;;;;;;;7.82;65.95;92989.63;516082;28;937;-59
2023/04/27 00:05:22;;;;;;;9.77;5.72;;;;;;;7.80;65.77;92994.94;516161;28;805;-59
2023/04/27 00:05:38;;;;;;;8.23;5.33;;;;;;;7.79;65.54;92998.22;516041;28;963;-59
2023/04/27 00:05:53;;;;;;;9.98;5.10;;;;;;;7.81;65.24;92996.41;516065;28;1077;-59
2023/04/27 00:06:08;;;;;;;11.63;5.33;;;;;;;7.82;65.02;92999.91;516028;28;782;-59
2023/04/27 00:06:25;;;;;;;10.27;5.80;;;;;;;7.79;65.19;92990.72;516111;28;770;-59
2023/04/27 00:06:43;;;;;;;10.02;5.47;;;;;;;7.71;65.52;92992.69;516088;28;865;-59
2023/04/27 00:06:59;;;;;;;9.45;5.30;;;;;;;7.72;65.67;92993.41;516057;28;931;-59
2023/04/27 00:07:14;;;;;;;9.63;5.63;;;;;;;7.72;65.57;92996.91;516056;28;825;-59
2023/04/27 00:07:30;;;;;;;9.27;5.28;;;;;;;7.71;65.62;92998.19;516140;28;1054;-59
2023/04/27 00:07:46;;;;;;;8.50;4.85;;;;;;;7.68;65.84;92987.53;516080;28;856;-59
2023/04/27 00:08:01;;;;;;;8.50;4.87;;;;;;;7.74;65.58;92993.63;516156;28;762;-59
2023/04/27 00:08:17;;;;;;;7.93;5.10;;;;;;;7.75;65.50;93001.34;515924;28;817;-59
2023/04/27 00:08:32;;;;;;;8.73;5.22;;;;;;;7.75;65.70;92992.34;516002;28;837;-59
2023/04/27 00:08:48;;;;;;;8.17;4.97;;;;;;;7.75;65.36;92995.09;515973;28;1168;-59
2023/04/27 00:09:03;;;;;;;6.93;4.57;;;;;;;7.71;64.95;92991.97;516101;28;896;-59
2023/04/27 00:09:19;;;;;;;8.00;4.70;;;;;;;7.70;64.80;92991.22;516089;28;812;-59
2023/04/27 00:09:34;;;;;;;7.40;4.73;;;;;;;7.71;65.02;92994.72;516064;28;935;-59
2023/04/27 00:09:50;;;;;;;6.25;4.57;;;;;;;7.66;65.67;92996.34;516059;28;986;-59
2023/04/27 00:10:07;;;;;;;7.35;4.28;;;;;;;7.58;65.32;92988.03;516003;28;981;-59
2023/04/27 00:10:22;;;;;;;9.07;4.53;;;;;;;7.66;65.47;92993.59;515867;28;845;-59
2023/04/27 00:10:37;;;;;;;9.18;5.10;;;;;;;7.69;65.31;93000.72;515937;28;845;-59
2023/04/27 00:10:53;;;;;;;9.10;5.20;;;;;;;7.67;65.06;92992.28;515953;28;769;-59
2023/04/27 00:11:08;;;;;;;9.07;5.15;;;;;;;7.70;65.20;92995.97;515920;28;785;-59
2023/04/27 00:11:24;;;;;;;8.27;5.10;;;;;;;7.71;64.92;92997.47;515885;28;802;-59
2023/04/27 00:11:39;;;;;;;6.73;5.33;;;;;;;7.73;65.04;92997.66;515946;28;881;-59
2023/04/27 00:11:54;;;;;;;8.57;6.03;;;;;;;7.72;64.99;92991.41;515818;28;1109;-59
2023/04/27 00:12:10;;;;;;;9.17;6.20;;;;;;;7.74;65.28;92999.09;515876;28;900;-59
2023/04/27 00:12:25;;;;;;;7.45;5.53;;;;;;;7.71;65.01;92994.72;516088;28;873;-59
2023/04/27 00:12:41;;;;;;;6.70;5.20;;;;;;;7.72;64.89;92996.16;516108;28;1091;-59
2023/04/27 00:12:57;;;;;;;8.40;5.57;;;;;;;7.72;64.67;92996.16;516014;28;905;-59
2023/04/27 00:13:12;;;;;;;9.48;5.68;;;;;;;7.70;64.39;92993.97;516108;28;1086;-59
2023/04/27 00:13:28;;;;;;;9.20;5.30;;;;;;;7.67;64.47;92983.34;516105;28;848;-59
2023/04/27 00:13:43;;;;;;;9.40;5.30;;;;;;;7.71;64.48;92987.19;516098;28;865;-59
2023/04/27 00:13:58;;;;;;;7.22;5.10;;;;;;;7.76;64.20;92999.31;516003;28;892;-59
2023/04/27 00:14:14;;;;;;;6.30;5.30;;;;;;;7.72;64.66;92999.66;515929;28;881;-59
2023/04/27 00:14:29;;;;;;;6.83;5.27;;;;;;;7.69;64.32;92989.75;516111;28;773;-59
2023/04/27 00:14:45;;;;;;;8.48;5.30;;;;;;;7.69;64.40;93000.00;516067;28;797;-59
2023/04/27 00:15:00;;;;;;;8.57;5.10;;;;;;;7.65;64.27;92992.84;516137;28;819;-59
2023/04/27 00:15:15;;;;;;;8.10;4.72;;;;;;;7.68;64.41;92993.78;516015;28;821;-59
2023/04/27 00:15:31;;;;;;;8.37;5.10;;;;;;;7.57;64.87;92992.06;516080;28;757;-59
2023/04/27 00:15:46;;;;;;;8.47;5.00;;;;;;;7.63;64.90;92994.66;515787;28;867;-59
2023/04/27 00:16:02;;;;;;;7.40;4.80;;;;;;;7.63;64.54;93000.16;515857;28;769;-59
2023/04/27 00:16:17;;;;;;;7.38;4.93;;;;;;;7.65;64.33;92997.59;515988;28;880;-59
2023/04/27 00:16:34;;;;;;;9.07;4.83;;;;;;;7.65;64.16;92992.09;516044;28;1436;-59
2023/04/27 00:16:49;;;;;;;7.80;4.75;;;;;;;7.64;63.93;92991.34;516079;28;864;-59
2023/04/27 00:17:05;;;;;;;6.30;4.50;;;;;;;7.60;63.79;92990.97;515998;28;866;-59
2023/04/27 00:17:20;;;;;;;8.03;4.67;;;;;;;7.65;63.96;92995.59;516020;28;860;-59
2023/04/27 00:17:36;;;;;;;9.40;4.78;;;;;;;7.65;63.97;92998.34;516066;28;865;-59
2023/04/27 00:17:51;;;;;;;7.70;4.60;;;;;;;7.65;63.85;92992.84;516061;28;823;-59
2023/04/27 00:18:07;;;;;;;7.20;4.72;;;;;;;7.68;63.83;93001.28;516083;28;789;-59
2023/04/27 00:18:22;;;;;;;7.43;4.67;;;;;;;7.70;63.53;92999.47;515999;28;1326;-59
2023/04/27 00:18:37;;;;;;;7.38;4.68;;;;;;;7.70;63.82;92996.72;516027;28;931;-59
2023/04/27 00:18:53;;;;;;;6.80;4.80;;;;;;;7.72;63.45;93001.66;516128;28;868;-59
2023/04/27 00:19:09;;;;;;;7.33;4.90;;;;;;;7.72;63.51;92999.66;516081;28;793;-59
2023/04/27 00:19:25;;;;;;;8.20;4.82;;;;;;;7.76;63.41;92999.31;515871;28;1910;-59
2023/04/27 00:19:40;;;;;;;8.80;4.93;;;;;;;7.72;63.69;92996.16;516086;28;844;-59
2023/04/27 00:19:56;;;;;;;8.88;5.03;;;;;;;7.70;63.71;92996.72;516071;28;1121;-59
2023/04/27 00:20:11;;;;;;;9.00;4.93;;;;;;;7.72;63.81;93002.41;515972;28;1126;-59
2023/04/27 00:20:27;;;;;;;9.00;5.30;;;;;;;7.70;63.61;93002.22;516060;28;854;-58
2023/04/27 00:20:43;;;;;;;8.30;4.93;;;;;;;7.57;63.70;92986.56;516114;28;948;-59
2023/04/27 00:20:58;;;;;;;6.85;4.57;;;;;;;7.73;63.76;93000.41;516083;28;906;-59
2023/04/27 00:21:14;;;;;;;7.90;5.00;;;;;;;7.74;63.48;92999.09;516084;28;766;-60
2023/04/27 00:21:30;;;;;;;10.55;5.47;;;;;;;7.75;63.34;92997.84;516087;28;825;-59
2023/04/27 00:21:46;;;;;;;10.75;5.55;;;;;;;7.76;63.35;93000.03;515985;28;826;-59
2023/04/27 00:22:01;;;;;;;8.93;4.90;;;;;;;7.51;62.95;92966.75;516091;28;773;-59
2023/04/27 00:22:17;;;;;;;9.07;4.90;;;;;;;7.80;63.30;93011.41;515955;28;801;-59
2023/04/27 00:22:32;;;;;;;10.80;5.40;;;;;;;7.79;63.61;93009.97;516037;28;898;-58
2023/04/27 00:22:48;;;;;;;10.00;5.47;;;;;;;7.76;63.54;93002.06;516009;28;894;-59
2023/04/27 00:23:03;;;;;;;9.70;5.10;;;;;;;7.77;63.70;93003.53;516100;28;766;-59
2023/04/27 00:23:18;;;;;;;8.35;4.70;;;;;;;7.77;63.55;93003.53;516067;28;793;-59
2023/04/27 00:23:34;;;;;;;6.50;4.43;;;;;;;7.78;63.45;93005.72;516014;28;852;-59
2023/04/27 00:23:50;;;;;;;8.50;4.72;;;;;;;7.81;63.56;93003.91;516066;28;863;-59
2023/04/27 00:24:05;;;;;;;7.80;5.00;;;;;;;7.84;63.52;93003.56;516018;28;914;-59
2023/04/27 00:24:21;;;;;;;6.53;5.10;;;;;;;7.86;63.79;93006.50;515982;28;856;-58
2023/04/27 00:24:36;;;;;;;7.27;5.17;;;;;;;7.89;63.55;93004.69;516052;28;766;-59
2023/04/27 00:24:51;;;;;;;7.15;4.75;;;;;;;7.87;63.57;93004.50;516014;28;841;-59
2023/04/27 00:25:07;;;;;;;6.77;4.67;;;;;;;7.92;63.58;93001.59;515952;28;1599;-59
2023/04/27 00:25:23;;;;;;;8.85;5.22;;;;;;;7.94;63.31;93007.28;516060;28;789;-58
2023/04/27 00:25:38;;;;;;;10.30;5.47;;;;;;;7.96;63.29;93004.00;516010;28;927;-59
2023/04/27 00:25:53;;;;;;;9.35;5.70;;;;;;;7.95;63.20;93016.28;516023;28;863;-59
2023/04/27 00:26:09;;;;;;;8.50;5.20;;;;;;;7.94;63.59;93006.56;516022;28;777;-59
2023/04/27 00:26:25;;;;;;;8.03;4.70;;;;;;;7.94;63.32;93010.03;516011;28;956;-59
2023/04/27 00:26:41;;;;;;;7.68;5.30;;;;;;;7.96;63.46;93006.75;516079;28;1009;-59
2023/04/27 00:26:56;;;;;;;8.90;5.37;;;;;;;7.92;63.45;93000.88;516064;28;815;-59
2023/04/27 00:27:12;;;;;;;9.00;4.90;;;;;;;7.96;63.45;93009.50;515935;28;825;-59
2023/04/27 00:27:27;;;;;;;8.90;4.93;;;;;;;7.96;63.30;93007.50;516095;28;847;-59
2023/04/27 00:27:43;;;;;;;8.05;5.18;;;;;;;7.97;63.07;93017.19;516027;28;773;-59
2023/04/27 00:27:58;;;;;;;8.13;5.20;;;;;;;7.96;63.56;93001.25;515996;28;1091;-59
2023/04/27 00:28:13;;;;;;;10.10;5.40;;;;;;;7.94;63.69;93007.28;515917;28;829;-59
2023/04/27 00:28:29;;;;;;;9.73;5.65;;;;;;;7.95;63.65;93005.28;516064;28;884;-59
2023/04/27 00:28:45;;;;;;;8.67;5.57;;;;;;;7.95;63.76;93008.03;516010;28;785;-59
2023/04/27 00:29:01;;;;;;;7.90;5.47;;;;;;;7.98;63.68;93004.19;516039;28;916;-59
2023/04/27 00:29:16;;;;;;;8.30;5.50;;;;;;;7.99;63.31;92997.44;516082;28;820;-59
2023/04/27 00:29:31;;;;;;;9.40;5.32;;;;;;;8.03;63.63;93006.06;516034;28;1030;-59
2023/04/27 00:29:47;;;;;;;8.93;5.17;;;;;;;7.96;63.10;93009.50;516038;28;916;-59
2023/04/27 00:30:03;;;;;;;6.87;4.83;;;;;;;7.90;62.64;93014.41;515993;28;957;-59
2023/04/27 00:30:18;;;;;;;7.25;4.60;;;;;;;7.88;62.87;93008.72;515912;28;896;-59
2023/04/27 00:30:34;;;;;;;8.52;4.50;;;;;;;7.86;63.03;93006.50;515956;28;860;-59
2023/04/27 00:30:53;;;;;;;10.35;4.60;;;;;;;7.87;63.38;93012.75;515749;28;1099;-59
2023/04/27 00:31:08;;;;;;;10.27;5.07;;;;;;;7.84;63.20;93005.59;515925;28;862;-59
2023/04/27 00:31:23;;;;;;;8.13;4.90;;;;;;;7.83;63.41;93004.13;516026;28;900;-59
2023/04/27 00:31:39;;;;;;;10.13;5.07;;;;;;;7.84;63.27;93005.59;515992;28;1478;-59
2023/04/27 00:31:54;;;;;;;12.93;5.30;;;;;;;7.87;63.28;93007.25;516071;28;875;-59
2023/04/27 00:32:10;;;;;;;12.60;5.53;;;;;;;7.85;63.28;93005.03;516038;28;1166;-59
2023/04/27 00:32:26;;;;;;;10.45;5.30;;;;;;;7.89;63.33;93012.94;517992;28;857;-59
2023/04/27 00:32:41;;;;;;;7.73;5.17;;;;;;;7.92;63.23;93003.63;518020;28;935;-59
2023/04/27 00:32:56;;;;;;;6.70;5.10;;;;;;;7.92;63.88;93003.63;518008;28;841;-59
2023/04/27 00:33:12;;;;;;;8.80;5.07;;;;;;;7.91;63.67;93013.13;518010;28;864;-59
2023/04/27 00:33:27;;;;;;;11.77;5.60;;;;;;;7.92;63.82;93009.13;517023;28;1760;-59
2023/04/27 00:33:42;;;;;;;11.45;5.57;;;;;;;7.92;63.78;93012.59;516052;28;809;-59
2023/04/27 00:33:58;;;;;;;10.07;5.30;;;;;;;7.86;63.27;93008.53;516051;28;782;-59
2023/04/27 00:34:13;;;;;;;9.63;5.27;;;;;;;7.79;63.48;93009.22;515947;28;790;-59
2023/04/27 00:34:29;;;;;;;8.80;4.78;;;;;;;7.73;63.51;92994.91;515998;28;814;-59
2023/04/27 00:34:44;;;;;;;8.17;4.83;;;;;;;7.81;63.34;92995.69;515942;28;853;-59
2023/04/27 00:34:59;;;;;;;7.50;4.73;;;;;;;7.82;63.22;93003.38;516097;28;809;-59
2023/04/27 00:35:15;;;;;;;8.95;4.68;;;;;;;7.87;63.02;93010.00;515975;28;879;-59
2023/04/27 00:35:33;;;;;;;9.43;5.37;;;;;;;7.86;63.43;93000.28;516050;28;889;-59
2023/04/27 00:35:49;;;;;;;8.50;5.53;;;;;;;7.88;63.65;93003.22;516007;28;1065;-59
2023/04/27 00:36:04;;;;;;;8.90;5.40;;;;;;;7.91;63.46;93004.88;515972;28;955;-59
2023/04/27 00:36:20;;;;;;;7.68;5.15;;;;;;;7.90;63.36;93004.16;515987;28;872;-59
2023/04/27 00:36:35;;;;;;;9.27;4.97;;;;;;;7.90;63.03;93004.16;516016;28;824;-58
2023/04/27 00:36:51;;;;;;;10.10;4.80;;;;;;;7.90;63.26;93004.16;516067;28;901;-59
2023/04/27 00:37:06;;;;;;;9.90;4.77;;;;;;;7.92;63.25;93006.38;516022;28;828;-59
2023/04/27 00:37:21;;;;;;;9.33;5.10;;;;;;;7.89;63.79;93007.44;515989;28;864;-59
2023/04/27 00:37:37;;;;;;;5.78;4.90;;;;;;;7.87;64.01;93001.75;515961;28;904;-59
2023/04/27 00:37:53;;;;;;;5.97;4.70;;;;;;;7.87;63.80;93005.25;516071;28;763;-59
2023/04/27 00:38:09;;;;;;;9.27;4.90;;;;;;;7.89;63.78;93005.44;516022;28;888;-59
2023/04/27 00:38:26;;;;;;;9.18;5.03;;;;;;;7.89;63.46;93008.19;516002;28;822;-59
2023/04/27 00:38:41;;;;;;;8.02;5.05;;;;;;;7.92;63.60;93015.34;516048;28;959;-59
2023/04/27 00:38:57;;;;;;;6.90;5.10;;;;;;;7.92;63.31;93006.38;515993;28;889;-59
2023/04/27 00:39:12;;;;;;;5.43;4.93;;;;;;;7.96;63.45;93009.50;516013;28;848;-59
2023/04/27 00:39:27;;;;;;;5.43;4.93;;;;;;;7.97;63.24;93002.72;515947;28;1991;-59
2023/04/27 00:39:43;;;;;;;7.28;5.07;;;;;;;7.99;63.46;93003.63;516068;28;807;-59
2023/04/27 00:39:58;;;;;;;8.03;5.17;;;;;;;8.00;63.42;93005.13;516053;28;782;-60
2023/04/27 00:40:14;;;;;;;5.97;4.72;;;;;;;8.01;63.47;93003.81;513863;28;896;-59
2023/04/27 00:40:29;;;;;;;7.80;4.83;;;;;;;7.99;63.87;93002.94;514016;28;866;-59
2023/04/27 00:40:44;;;;;;;9.87;4.97;;;;;;;7.98;64.16;93004.94;514000;28;890;-59
2023/04/27 00:41:04;;;;;;;7.70;4.75;;;;;;;8.00;63.96;93002.38;513991;28;830;-59
2023/04/27 00:41:21;;;;;;;5.40;4.45;;;;;;;7.85;63.25;92987.81;513989;28;869;-59
2023/04/27 00:41:38;;;;;;;7.50;4.63;;;;;;;7.89;63.80;93005.44;513962;28;865;-59
2023/04/27 00:41:53;;;;;;;9.52;5.00;;;;;;;7.88;64.22;92994.97;514053;28;838;-59
2023/04/27 00:42:12;;;;;;;9.00;5.07;;;;;;;7.89;64.29;93004.69;513942;28;913;-59
2023/04/27 00:42:28;;;;;;;7.38;4.82;;;;;;;7.88;64.30;93000.47;513891;28;932;-59
2023/04/27 00:42:44;;;;;;;6.87;4.73;;;;;;;7.85;64.04;93001.56;513978;28;901;-59
2023/04/27 00:42:59;;;;;;;7.07;4.55;;;;;;;7.85;64.00;93001.56;513987;28;912;-59
2023/04/27 00:43:15;;;;;;;6.55;4.40;;;;;;;7.83;63.77;92999.34;513989;28;861;-59
2023/04/27 00:43:31;;;;;;;8.33;4.57;;;;;;;7.85;63.79;93007.78;513993;28;881;-59
2023/04/27 00:43:46;;;;;;;10.02;5.03;;;;;;;7.86;63.66;93006.50;513973;28;823;-59
2023/04/27 00:44:02;;;;;;;8.95;5.00;;;;;;;7.84;63.83;92997.34;514027;28;789;-59
2023/04/27 00:44:26;;;;;;;6.53;4.30;;;;;;;7.80;63.57;93005.19;513968;28;813;-59
2023/04/27 00:44:42;;;;;;;9.18;4.68;;;;;;;7.83;63.76;93009.59;513977;28;831;-59
2023/04/27 00:45:00;;;;;;;5.67;4.13;;;;;;;7.82;63.60;93005.41;513969;28;1014;-60
2023/04/27 00:45:16;;;;;;;5.07;4.00;;;;;;;7.84;63.49;93011.81;513956;28;826;-60
2023/04/27 00:45:31;;;;;;;7.68;4.78;;;;;;;7.85;63.16;93009.81;514061;28;807;-59
2023/04/27 00:45:46;;;;;;;8.00;5.07;;;;;;;7.87;63.06;93008.00;513951;28;888;-59
2023/04/27 00:46:02;;;;;;;9.52;4.85;;;;;;;7.81;63.03;92990.19;513946;28;860;-59
2023/04/27 00:46:18;;;;;;;9.37;4.83;;;;;;;7.92;63.28;93009.13;513885;28;908;-59
2023/04/27 00:46:35;;;;;;;6.65;4.90;;;;;;;7.77;62.95;93006.28;513809;28;1117;-59
2023/04/27 00:46:51;;;;;;;6.03;4.45;;;;;;;7.63;63.00;92981.66;513883;28;961;-59
2023/04/27 00:47:07;;;;;;;6.25;4.90;;;;;;;7.77;62.75;93004.28;513727;28;881;-59
2023/04/27 00:47:22;;;;;;;6.45;4.97;;;;;;;7.78;62.59;93002.97;513799;28;912;-59
2023/04/27 00:47:37;;;;;;;6.73;4.57;;;;;;;7.78;62.72;93005.00;511865;29;885;-59
2023/04/27 00:47:53;;;;;;;7.18;4.47;;;;;;;7.79;62.46;93007.22;511869;28;794;-59
2023/04/27 00:48:12;;;;;;;8.20;4.60;;;;;;;7.79;62.43;93009.97;511816;29;825;-59
2023/04/27 00:48:27;;;;;;;7.75;4.70;;;;;;;7.81;62.49;93009.41;511851;28;782;-59
2023/04/27 00:48:43;;;;;;;7.25;4.57;;;;;;;7.73;62.56;93008.66;512771;28;818;-59
2023/04/27 00:48:59;;;;;;;7.43;4.90;;;;;;;7.67;62.24;93014.28;513813;28;1025;-59
2023/04/27 00:49:15;;;;;;;7.85;4.80;;;;;;;7.68;62.39;93013.00;513817;28;878;-59
2023/04/27 00:49:31;;;;;;;7.27;4.83;;;;;;;7.71;62.47;93011.91;513906;28;1058;-59
2023/04/27 00:49:46;;;;;;;11.40;5.07;;;;;;;7.74;62.64;93021.84;513962;28;998;-59
2023/04/27 00:50:02;;;;;;;10.60;5.05;;;;;;;7.56;62.79;92987.09;513812;28;861;-60
2023/04/27 00:50:28;;;;;;;6.95;4.70;;;;;;;7.79;63.19;93012.72;513682;28;881;-59
2023/04/27 00:50:44;;;;;;;7.32;4.72;;;;;;;7.83;62.96;93015.84;513780;28;900;-59
2023/04/27 00:50:59;;;;;;;8.13;4.70;;;;;;;7.83;63.31;93013.09;513770;28;884;-59
2023/04/27 00:51:15;;;;;;;6.88;4.60;;;;;;;7.85;63.25;93012.53;513775;28;942;-59
2023/04/27 00:51:30;;;;;;;5.60;4.37;;;;;;;7.86;62.91;93012.00;513911;28;840;-59
2023/04/27 00:51:47;;;;;;;8.23;4.32;;;;;;;7.87;62.59;93015.50;513782;28;1119;-59
2023/04/27 00:52:02;;;;;;;8.93;4.53;;;;;;;7.92;62.37;93015.34;513936;28;885;-59
2023/04/27 00:52:17;;;;;;;6.67;4.27;;;;;;;7.83;62.46;92999.34;513933;28;908;-59
2023/04/27 00:52:35;;;;;;;6.40;4.47;;;;;;;7.97;62.13;93016.47;513842;28;932;-59
2023/04/27 00:52:50;;;;;;;6.45;4.28;;;;;;;7.98;61.83;93026.19;514059;28;896;-59
2023/04/27 00:53:06;;;;;;;7.43;4.53;;;;;;;7.97;61.82;93013.72;513946;28;962;-59
2023/04/27 00:53:22;;;;;;;8.13;4.63;;;;;;;7.99;62.10;93014.63;514908;28;2457;-59
2023/04/27 00:53:37;;;;;;;10.07;4.35;;;;;;;8.00;62.01;93018.88;515905;28;1496;-59
2023/04/27 00:53:53;;;;;;;10.43;4.50;;;;;;;7.98;62.17;93017.94;515856;28;916;-59
2023/04/27 00:54:08;;;;;;;9.85;4.93;;;;;;;7.94;61.96;93023.03;513711;28;976;-59
2023/04/27 00:54:23;;;;;;;8.83;4.83;;;;;;;7.92;61.97;93011.84;513798;28;940;-59
2023/04/27 00:54:39;;;;;;;8.45;4.38;;;;;;;7.92;61.70;93017.34;513809;28;770;-59
2023/04/27 00:54:56;;;;;;;11.00;4.23;;;;;;;7.93;61.74;93016.06;513798;28;1104;-59
2023/04/27 00:55:11;;;;;;;9.98;4.38;;;;;;;7.88;61.17;93014.97;513794;28;972;-59
2023/04/27 00:55:27;;;;;;;7.50;4.20;;;;;;;7.89;61.39;93016.41;513841;28;1024;-59
2023/04/27 00:55:42;;;;;;;8.80;4.32;;;;;;;7.93;61.29;93019.56;514371;28;833;-59
2023/04/27 00:55:57;;;;;;;9.47;4.40;;;;;;;7.97;61.49;93014.44;515811;28;1099;-59
2023/04/27 00:56:13;;;;;;;9.15;4.70;;;;;;;7.99;61.62;93022.16;515894;28;982;-59
2023/04/27 00:56:28;;;;;;;8.43;4.80;;;;;;;8.02;61.42;93012.81;515989;28;920;-59
2023/04/27 00:56:45;;;;;;;6.70;4.40;;;;;;;8.02;61.53;93021.06;515778;28;1007;-59
2023/04/27 00:57:01;;;;;;;6.25;4.18;;;;;;;8.00;61.02;93023.63;513698;28;1414;-59
2023/04/27 00:57:16;;;;;;;7.57;4.32;;;;;;;8.01;61.32;93017.56;513774;28;869;-59
2023/04/27 00:57:32;;;;;;;7.33;4.30;;;;;;;7.97;60.97;93019.22;513721;28;849;-59
2023/04/27 00:57:48;;;;;;;7.03;4.15;;;;;;;7.93;60.94;93016.06;513671;28;1112;-59
2023/04/27 00:58:03;;;;;;;6.43;4.10;;;;;;;7.98;60.85;93021.44;513770;28;856;-59
2023/04/27 00:58:19;;;;;;;9.70;4.73;;;;;;;8.01;61.42;93019.59;513752;28;919;-59
2023/04/27 00:58:34;;;;;;;13.02;5.15;;;;;;;8.03;61.37;93023.28;514442;28;848;-59
2023/04/27 00:58:50;;;;;;;9.40;4.38;;;;;;;8.06;60.96;93021.44;515906;28;848;-59
2023/04/27 00:59:05;;;;;;;7.80;4.20;;;;;;;8.07;61.76;93020.19;515960;28;777;-59
2023/04/27 00:59:21;;;;;;;9.20;4.60;;;;;;;7.93;61.83;92997.56;515893;28;1969;-59
2023/04/27 00:59:36;;;;;;;10.65;5.07;;;;;;;8.04;61.78;93016.50;515916;28;1023;-59
2023/04/27 00:59:52;;;;;;;9.10;4.70;;;;;;;8.04;61.40;93022.00;515994;28;972;-59
2023/04/27 01:00:10;;;;;;;7.32;4.47;;;;;;;8.01;61.37;93014.13;515787;28;835;-59
2023/04/27 01:00:25;;;;;;;7.85;4.78;;;;;;;8.07;60.93;93018.19;515784;28;856;-59
2023/04/27 01:00:41;;;;;;;8.38;4.60;;;;;;;7.92;61.01;92992.63;515834;28;994;-59
2023/04/27 01:00:58;;;;;;;10.20;4.85;;;;;;;8.10;61.22;93014.31;513778;28;830;-59
2023/04/27 01:01:13;;;;;;;9.68;5.10;;;;;;;8.13;60.99;93018.75;513832;28;826;-59
2023/04/27 01:01:29;;;;;;;10.00;4.63;;;;;;;8.14;61.29;93017.44;513719;28;1011;-59
2023/04/27 01:01:48;;;;;;;11.30;4.55;;;;;;;8.13;60.89;93018.00;513791;28;826;-59
2023/04/27 01:02:03;;;;;;;10.35;4.80;;;;;;;8.06;61.32;93015.94;515125;28;889;-59
2023/04/27 01:02:18;;;;;;;9.30;4.83;;;;;;;8.06;61.42;93022.19;513769;28;817;-59
2023/04/27 01:02:35;;;;;;;7.45;4.70;;;;;;;8.07;61.37;93017.44;513775;28;784;-59
2023/04/27 01:02:52;;;;;;;6.97;4.43;;;;;;;8.10;61.44;93019.09;514890;28;917;-59
2023/04/27 01:03:07;;;;;;;7.95;4.65;;;;;;;8.10;61.28;93014.31;513767;28;1605;-60
2023/04/27 01:03:22;;;;;;;8.60;4.60;;;;;;;8.07;61.65;93022.94;513814;28;881;-59
2023/04/27 01:03:38;;;;;;;7.30;4.43;;;;;;;8.03;61.22;93011.56;513710;28;905;-59
2023/04/27 01:03:53;;;;;;;6.23;4.27;;;;;;;8.05;61.20;93017.25;513868;28;774;-59
2023/04/27 01:04:09;;;;;;;9.13;4.50;;;;;;;8.07;60.83;93020.94;513754;28;857;-59
2023/04/27 01:04:24;;;;;;;10.20;4.70;;;;;;;8.08;60.56;93013.38;513786;28;846;-59
2023/04/27 01:04:40;;;;;;;8.07;4.43;;;;;;;8.15;60.85;93016.19;514382;28;888;-59
2023/04/27 01:04:55;;;;;;;9.43;4.40;;;;;;;8.18;60.62;93015.13;515781;28;904;-59
2023/04/27 01:05:11;;;;;;;9.03;4.30;;;;;;;8.21;60.33;93018.75;515901;28;904;-59
2023/04/27 01:05:27;;;;;;;8.07;4.10;;;;;;;8.22;59.98;93014.75;515925;28;882;-60
2023/04/27 01:05:42;;;;;;;8.35;4.40;;;;;;;8.22;60.17;93023.00;515864;28;821;-59
2023/04/27 01:06:00;;;;;;;7.10;4.70;;;;;;;8.23;59.89;93024.44;515756;28;928;-59
2023/04/27 01:06:15;;;;;;;6.10;4.50;;;;;;;8.24;59.63;93020.44;515657;28;942;-59
2023/04/27 01:06:31;;;;;;;5.17;4.30;;;;;;;8.25;60.17;93019.91;515819;28;1180;-59
2023/04/27 01:06:46;;;;;;;7.63;4.30;;;;;;;8.27;59.87;93024.88;515730;28;1143;-59
2023/04/27 01:07:02;;;;;;;9.20;4.40;;;;;;;8.26;59.83;93015.16;515826;28;827;-59
2023/04/27 01:07:18;;;;;;;8.80;4.35;;;;;;;8.27;60.01;93017.34;513685;28;818;-59
2023/04/27 01:07:37;;;;;;;9.23;4.40;;;;;;;8.29;60.08;93022.31;514463;28;821;-59
2023/04/27 01:07:52;;;;;;;9.00;4.40;;;;;;;8.30;60.27;93027.28;515747;28;916;-59
2023/04/27 01:08:08;;;;;;;8.30;3.97;;;;;;;8.20;59.96;93003.56;515730;28;843;-59
2023/04/27 01:08:23;;;;;;;7.23;4.23;;;;;;;8.32;60.29;93023.97;515747;28;821;-59
2023/04/27 01:08:40;;;;;;;7.18;4.30;;;;;;;8.30;60.11;93023.78;515699;28;832;-59
2023/04/27 01:08:55;;;;;;;5.55;3.95;;;;;;;8.30;60.32;93023.78;515816;28;852;-59
2023/04/27 01:09:10;;;;;;;6.37;4.37;;;;;;;8.21;60.57;93013.25;515810;28;935;-59
2023/04/27 01:09:26;;;;;;;7.25;4.30;;;;;;;8.21;60.20;93022.25;515941;28;780;-59
2023/04/27 01:09:41;;;;;;;7.00;3.80;;;;;;;8.16;59.93;93027.94;516014;28;792;-59
2023/04/27 01:09:57;;;;;;;6.77;3.93;;;;;;;8.15;60.22;93020.94;515975;28;775;-59
2023/04/27 01:10:12;;;;;;;6.15;4.35;;;;;;;8.08;61.02;93014.13;515855;28;794;-59
2023/04/27 01:10:27;;;;;;;8.40;4.90;;;;;;;8.13;61.16;93020.75;515971;28;781;-59
2023/04/27 01:10:43;;;;;;;8.70;4.73;;;;;;;8.15;60.58;93032.69;516044;28;771;-59
2023/04/27 01:10:58;;;;;;;6.15;4.05;;;;;;;8.10;60.30;93016.34;515902;28;866;-59
2023/04/27 01:11:14;;;;;;;6.90;4.27;;;;;;;8.17;60.01;93023.88;515951;28;1491;-59
2023/04/27 01:11:29;;;;;;;7.75;4.50;;;;;;;8.12;60.20;93019.28;515947;28;893;-59
2023/04/27 01:11:45;;;;;;;8.77;4.60;;;;;;;8.16;60.17;93028.66;515880;28;900;-59
2023/04/27 01:12:02;;;;;;;8.63;4.32;;;;;;;8.15;60.13;93013.44;515924;28;872;-59
2023/04/27 01:12:17;;;;;;;8.48;3.80;;;;;;;8.18;60.19;93022.63;515913;28;868;-59
2023/04/27 01:12:33;;;;;;;8.07;3.80;;;;;;;8.18;60.50;93028.13;515918;28;1038;-59
2023/04/27 01:12:48;;;;;;;6.45;4.10;;;;;;;8.16;60.92;93028.66;515951;28;841;-59
2023/04/27 01:13:03;;;;;;;7.53;4.43;;;;;;;8.13;60.45;93021.50;515938;28;877;-59
2023/04/27 01:13:19;;;;;;;9.90;4.27;;;;;;;8.14;60.59;93022.94;515873;28;1528;-59
2023/04/27 01:13:34;;;;;;;9.30;3.90;;;;;;;8.10;60.13;93019.09;515908;28;817;-59
2023/04/27 01:13:50;;;;;;;6.30;3.70;;;;;;;8.08;60.14;93021.63;516007;28;827;-59
2023/04/27 01:14:06;;;;;;;5.75;3.80;;;;;;;8.05;60.42;93020.72;515852;28;907;-59
2023/04/27 01:14:21;;;;;;;7.25;4.20;;;;;;;8.09;60.43;93031.38;515840;28;864;-59
2023/04/27 01:14:36;;;;;;;10.43;4.73;;;;;;;8.11;60.60;93032.31;515970;28;814;-59
2023/04/27 01:14:52;;;;;;;9.23;4.73;;;;;;;8.14;60.55;93025.69;515868;28;1149;-59
2023/04/27 01:15:08;;;;;;;6.78;4.30;;;;;;;8.08;60.63;93024.38;515939;28;1581;-59
2023/04/27 01:15:23;;;;;;;7.00;4.07;;;;;;;8.08;60.62;93030.63;515966;28;951;-59
2023/04/27 01:15:39;;;;;;;8.10;4.00;;;;;;;7.99;60.84;93013.91;515936;28;801;-59
2023/04/27 01:15:55;;;;;;;8.75;4.05;;;;;;;8.11;60.87;93026.06;515907;28;943;-59
2023/04/27 01:16:10;;;;;;;8.77;4.60;;;;;;;8.09;61.50;93029.38;515903;28;789;-59
2023/04/27 01:16:25;;;;;;;18.63;4.67;;;;;;;8.02;60.94;93021.81;514800;28;1341;-59
2023/04/27 01:16:41;;;;;;;17.17;4.57;;;;;;;7.95;61.29;93025.25;514015;28;840;-59
2023/04/27 01:16:57;;;;;;;7.80;4.88;;;;;;;7.93;61.62;93027.81;513953;28;837;-59
2023/04/27 01:17:13;;;;;;;8.63;4.78;;;;;;;7.94;61.60;93023.03;513893;28;801;-59
2023/04/27 01:17:28;;;;;;;9.07;4.70;;;;;;;7.98;61.27;93023.44;513888;28;922;-59
2023/04/27 01:17:43;;;;;;;7.20;4.32;;;;;;;7.99;61.11;93028.38;513911;28;837;-59